Saturday, November 18, 2017, 4:38 PM EST
Back to Local

KFKL, Franklin, Venango Regional Airport

Location: Franklin, PA, United States Lat: 41.383
Local Time: 4:38 PM EST (21:38 GMT) Lon: -79.867
Time Zone: US/Eastern Elev: 1538 ft

Show me the last for .
Show Decoded

2017-11-18 15:56 METAR KFKL 182056Z AUTO 18008KT 10SM FEW005 SCT010 OVC023 08/07 A2935 RMK AO2 PK
                 WND 17026/2011 RAE53 SLP946 P0002 60018 T00780072 56046 =
2017-11-18 15:47 METAR KFKL 182047Z AUTO 17011KT 10SM -RA SCT005 BKN010 OVC030 08/07 A2935 RMK
                 AO2 PK WND 17026/2011 CIG 008V012 P0002 =
2017-11-18 14:56 METAR KFKL 181956Z AUTO 19009KT 6SM RA BR BKN005 OVC009 07/07 A2940 RMK AO2
                 SLP965 P0009 T00720067 =
2017-11-18 14:42 METAR KFKL 181942Z AUTO 17012KT 8SM RA OVC005 07/07 A2940 RMK AO2 CIG 003V009
                 P0006 =
2017-11-18 13:56 METAR KFKL 181856Z AUTO 17010KT 7SM -RA OVC003 07/06 A2943 RMK AO2 SLP976 P0007
                 T00670061 =
2017-11-18 13:16 METAR KFKL 181816Z AUTO 18008KT 8SM -RA OVC003 07/06 A2947 RMK AO2 P0003 =
2017-11-18 12:56 METAR KFKL 181756Z AUTO 18008KT 5SM +RA BR OVC005 07/06 A2949 RMK AO2 RAB31 CIG
                 004V008 SLP997 P0005 60040 T00670056 10067 20033 58016 =
2017-11-18 11:56 METAR KFKL 181656Z AUTO 20009KT 10SM OVC007 07/06 A2954 RMK AO2 RAE08 SLP013
                 P0000 T00670056 TSNO =
2017-11-18 11:52 METAR KFKL 181652Z AUTO 20008KT 10SM OVC007 07/06 A2954 RMK AO2 RAE08 P0000 =
2017-11-18 10:56 METAR KFKL 181556Z AUTO 19011KT 10SM -RA BKN005 OVC011 06/05 A2954 RMK AO2 CIG
                 004V008 PRESFR SLP015 P0002 T00610050 =
2017-11-18 10:48 METAR KFKL 181548Z AUTO 17013G22KT 10SM -RA BKN005 OVC011 06/04 A2956 RMK AO2
                 PRESFR P0002 =
2017-11-18 09:56 METAR KFKL 181456Z AUTO 17012KT 8SM -RA OVC004 05/04 A2961 RMK AO2 CIG 003V008
                 SLP038 P0016 60033 T00500039 58026 =
2017-11-18 09:17 METAR KFKL 181417Z AUTO 19011KT 6SM RA BR BKN004 OVC008 04/04 A2964 RMK AO2
                 P0005 =
2017-11-18 08:56 METAR KFKL 181356Z AUTO 20009KT 4SM RA BR OVC006 04/03 A2965 RMK AO2 CIG 003V010
                 SLP054 P0008 T00440033 =
2017-11-18 08:37 METAR KFKL 181337Z AUTO 19011G23KT 6SM -RA BR BKN006 OVC011 04/03 A2966 RMK AO2
                 CIG 003V008 P0007 =
2017-11-18 07:56 METAR KFKL 181256Z AUTO 17011KT 6SM RA BR BKN004 OVC009 04/03 A2966 RMK AO2 CIG
                 003V007 SLP057 P0009 T00390033 =
2017-11-18 07:48 METAR KFKL 181248Z AUTO 18010KT 7SM RA BKN004 OVC008 04/03 A2967 RMK AO2 CIG
                 003V006 P0007 =
2017-11-18 07:32 METAR KFKL 181232Z AUTO 19009KT 7SM -RA BKN006 BKN009 OVC012 03/03 A2967 RMK AO2
                 CIG 003V007 P0004 =
2017-11-18 07:25 METAR KFKL 181225Z AUTO 19009KT 6SM -RA BR SCT006 OVC012 03/03 A2968 RMK AO2
                 P0004 =
2017-11-18 06:56 METAR KFKL 181156Z AUTO 19011KT 7SM -RA BKN008 BKN015 OVC026 03/03 A2969 RMK AO2
                 UPE51RAB51 CIG 006V011 SLP066 P0021 60058 70058 T00330028 10039 20017 56019 =
2017-11-18 06:29 METAR KFKL 181129Z AUTO 18013KT 4SM UP BR FEW008 BKN020 OVC028 03/02 A2970 RMK
                 AO2 P0014 =
2017-11-18 06:13 METAR KFKL 181113Z AUTO 19010KT 4SM UP BR BKN012 BKN020 OVC027 03/01 A2970 RMK
                 AO2 P0007 =
2017-11-18 05:56 METAR KFKL 181056Z AUTO 19010KT 3SM UP BR FEW016 BKN028 OVC034 03/01 A2970 RMK
                 AO2 UPB18SNE18 SLP070 P0030 T00280006 =
2017-11-18 04:56 METAR KFKL 180956Z AUTO 15008KT 5SM -SN FEW043 OVC060 03/M02 A2972 RMK AO2
                 RAB32E56SNB56 PRESFR SLP076 P0007 T00281017 =
2017-11-18 03:56 METAR KFKL 180856Z AUTO 19006KT 10SM OVC100 03/M04 A2975 RMK AO2 SLP086
                 T00281039 58026 =
2017-11-18 02:56 METAR KFKL 180756Z AUTO 17009KT 10SM BKN110 03/M04 A2977 RMK AO2 SLP095
                 T00331044 =
2017-11-18 01:56 METAR KFKL 180656Z AUTO 16008KT 10SM CLR 02/M04 A2981 RMK AO2 SLP106 T00221044
                 FZRANO =
2017-11-18 00:56 METAR KFKL 180556Z AUTO 15009KT 10SM CLR 01/M04 A2983 RMK AO2 SLP116 T00111039
                 10022 21006 58039 FZRANO =
2017-11-17 23:56 METAR KFKL 180456Z AUTO 15008KT 10SM CLR 01/M04 A2989 RMK AO2 SLP135 T00111039
                 400391006 FZRANO =
2017-11-17 22:56 METAR KFKL 180356Z AUTO 15005KT 10SM CLR M01/M03 A2993 RMK AO2 SLP151 T10061033
                 FZRANO =
2017-11-17 21:56 METAR KFKL 180256Z AUTO 13007KT 10SM CLR 00/M03 A2995 RMK AO2 SLP158 T00001033
                 58027 FZRANO =
2017-11-17 20:56 METAR KFKL 180156Z AUTO 14006KT 10SM CLR 02/M03 A2999 RMK AO2 SLP169 T00171033
                 FZRANO =
2017-11-17 19:56 METAR KFKL 180056Z AUTO 17006KT 10SM CLR 02/M03 A3002 RMK AO2 SLP181 T00221033
                 FZRANO =
2017-11-17 18:56 METAR KFKL 172356Z AUTO 18006KT 10SM CLR 02/M03 A3004 RMK AO2 SLP186 T00221033
                 10039 20017 56022 FZRANO =
2017-11-17 17:56 METAR KFKL 172256Z AUTO 16007KT 10SM FEW100 02/M03 A3004 RMK AO2 SLP189
                 T00221033 FZRANO =
2017-11-17 16:56 METAR KFKL 172156Z AUTO 16005KT 10SM BKN110 03/M03 A3007 RMK AO2 SLP198
                 T00281028 =

Support USWX by starting your Amazon purchase here.